createdAt,value
2018-06-03T00:00:18.938Z,21.80
2018-06-03T00:01:21.746Z,21.80
2018-06-03T00:02:24.227Z,21.80
2018-06-03T00:03:26.694Z,21.70
2018-06-03T00:04:30.685Z,21.70
2018-06-03T00:05:33.408Z,21.70
2018-06-03T00:06:35.939Z,21.70
2018-06-03T00:07:38.376Z,21.70
2018-06-03T00:08:40.848Z,21.70
2018-06-03T00:09:43.391Z,21.70
2018-06-03T00:10:47.778Z,21.70
2018-06-03T00:11:50.286Z,21.70
2018-06-03T00:12:52.743Z,21.70
2018-06-03T00:13:55.211Z,21.70
2018-06-03T00:14:57.699Z,21.70
2018-06-03T00:16:01.113Z,21.70
2018-06-03T00:17:03.604Z,21.60
2018-06-03T00:18:06.067Z,21.70
2018-06-03T00:19:08.539Z,21.60
2018-06-03T00:20:12.311Z,21.60
2018-06-03T00:21:35.399Z,21.60
2018-06-03T00:22:37.867Z,21.50
2018-06-03T00:23:40.500Z,21.50
2018-06-03T00:24:42.971Z,21.50
2018-06-03T00:25:45.726Z,21.50
2018-06-03T00:26:48.220Z,21.40
2018-06-03T00:27:50.688Z,21.40
2018-06-03T00:28:53.161Z,21.30
2018-06-03T00:29:55.640Z,21.30
2018-06-03T00:30:59.996Z,21.30
2018-06-03T00:32:02.484Z,21.30
2018-06-03T00:33:04.964Z,21.30
2018-06-03T00:34:07.431Z,21.30
2018-06-03T00:35:11.592Z,21.30
2018-06-03T00:36:26.241Z,21.30
2018-06-03T00:37:28.746Z,21.20
2018-06-03T00:38:31.220Z,21.20
2018-06-03T00:39:33.687Z,21.20
2018-06-03T00:40:36.508Z,21.20
2018-06-03T00:41:39.039Z,21.20
2018-06-03T00:42:42.272Z,21.20
2018-06-03T00:43:44.740Z,21.20
2018-06-03T00:44:47.208Z,21.20
2018-06-03T00:45:49.954Z,21.30
2018-06-03T00:46:52.460Z,21.20
2018-06-03T00:47:54.940Z,21.30
2018-06-03T00:48:57.409Z,21.30
2018-06-03T00:49:59.879Z,21.30
2018-06-03T00:51:03.299Z,21.30
2018-06-03T00:52:05.816Z,21.30
2018-06-03T00:53:09.055Z,21.30
2018-06-03T00:54:11.532Z,21.30
2018-06-03T00:55:14.899Z,21.30
2018-06-03T00:56:29.220Z,21.30
2018-06-03T00:57:32.468Z,21.30
2018-06-03T00:58:34.964Z,21.30
2018-06-03T00:59:38.207Z,21.30
2018-06-03T01:00:40.955Z,21.30
2018-06-03T01:01:43.445Z,21.30
2018-06-03T01:02:45.932Z,21.20
2018-06-03T01:03:48.439Z,21.20
2018-06-03T01:04:51.652Z,21.20
2018-06-03T01:05:54.387Z,21.20
2018-06-03T01:06:56.916Z,21.20
2018-06-03T01:07:59.392Z,21.20
2018-06-03T01:09:02.632Z,21.20
2018-06-03T01:10:05.373Z,21.20
2018-06-03T01:11:08.170Z,21.10
2018-06-03T01:12:10.683Z,21.20
2018-06-03T01:13:13.916Z,21.20
2018-06-03T01:14:16.416Z,21.20
2018-06-03T01:15:19.125Z,21.20
2018-06-03T01:16:21.900Z,21.20
2018-06-03T01:17:24.388Z,21.20
2018-06-03T01:18:26.859Z,21.20
2018-06-03T01:19:29.328Z,21.20
2018-06-03T01:20:32.105Z,21.20
2018-06-03T01:21:34.596Z,21.20
2018-06-03T01:22:37.864Z,21.20
2018-06-03T01:23:40.332Z,21.20
2018-06-03T01:24:42.804Z,21.20
2018-06-03T01:25:46.229Z,21.20
2018-06-03T01:26:48.728Z,21.20
2018-06-03T01:27:51.216Z,21.20
2018-06-03T01:28:53.687Z,21.30
2018-06-03T01:29:56.927Z,21.30
2018-06-03T01:31:00.338Z,21.30
2018-06-03T01:32:02.836Z,21.30
2018-06-03T01:33:06.091Z,21.30
2018-06-03T01:34:08.572Z,21.30
2018-06-03T01:35:12.088Z,21.30
2018-06-03T01:36:14.898Z,21.30
2018-06-03T01:37:17.384Z,21.30
2018-06-03T01:38:20.973Z,21.30
2018-06-03T01:39:23.443Z,21.30
2018-06-03T01:40:27.788Z,21.30
2018-06-03T01:41:30.276Z,21.30
2018-06-03T01:42:32.743Z,21.30
2018-06-03T01:43:35.238Z,21.30
2018-06-03T01:44:37.707Z,21.30
2018-06-03T01:45:42.056Z,21.30
2018-06-03T01:46:45.873Z,21.30
2018-06-03T01:47:48.339Z,21.30
2018-06-03T01:48:50.823Z,21.20
2018-06-03T01:49:53.300Z,21.20
2018-06-03T01:50:56.220Z,21.20
2018-06-03T01:51:58.725Z,21.20
2018-06-03T01:53:01.212Z,21.20
2018-06-03T01:54:04.472Z,21.20
2018-06-03T01:55:07.129Z,21.20
2018-06-03T01:56:10.581Z,21.10
2018-06-03T01:57:13.080Z,21.10
2018-06-03T01:58:15.556Z,21.10
2018-06-03T01:59:18.064Z,21.10
2018-06-03T02:00:21.582Z,21.10
2018-06-03T02:01:24.957Z,21.10
2018-06-03T02:02:27.459Z,21.10
2018-06-03T02:03:29.931Z,21.10
2018-06-03T02:04:32.419Z,21.10
2018-06-03T02:05:36.692Z,21.10
2018-06-03T02:06:39.178Z,21.10
2018-06-03T02:07:42.416Z,21.10
2018-06-03T02:08:44.888Z,21.00
2018-06-03T02:09:47.394Z,21.10
2018-06-03T02:10:51.642Z,21.10
2018-06-03T02:11:54.144Z,21.10
2018-06-03T02:12:56.623Z,21.10
2018-06-03T02:13:59.135Z,21.10
2018-06-03T02:15:01.627Z,21.10
2018-06-03T02:16:04.475Z,21.10
2018-06-03T02:17:06.989Z,21.10
2018-06-03T02:18:09.468Z,21.10
2018-06-03T02:19:12.708Z,21.10
2018-06-03T02:20:15.458Z,21.10
2018-06-03T02:21:18.127Z,21.10
2018-06-03T02:22:20.624Z,21.00
2018-06-03T02:23:23.112Z,21.00
2018-06-03T02:24:25.579Z,21.00
2018-06-03T02:25:30.164Z,21.10
2018-06-03T02:26:32.663Z,21.00
2018-06-03T02:27:35.900Z,21.10
2018-06-03T02:28:38.372Z,21.00
2018-06-03T02:29:41.276Z,21.00
2018-06-03T02:30:43.991Z,21.00
2018-06-03T02:31:46.524Z,21.00
2018-06-03T02:32:48.980Z,21.00
2018-06-03T02:33:52.220Z,21.10
2018-06-03T02:34:54.692Z,21.00
2018-06-03T02:35:57.541Z,21.00
2018-06-03T02:37:00.035Z,21.00
2018-06-03T02:38:02.507Z,21.00
2018-06-03T02:39:04.985Z,21.00
2018-06-03T02:40:07.706Z,21.00
2018-06-03T02:41:10.477Z,21.00
2018-06-03T02:42:12.980Z,20.90
2018-06-03T02:43:15.455Z,21.00
2018-06-03T02:44:17.924Z,20.90
2018-06-03T02:45:20.643Z,20.90
2018-06-03T02:46:23.415Z,20.90
2018-06-03T02:47:25.917Z,20.90
2018-06-03T02:48:28.391Z,20.90
2018-06-03T02:49:30.861Z,20.90
2018-06-03T02:50:33.680Z,20.90
2018-06-03T02:51:36.200Z,20.90
2018-06-03T02:52:38.669Z,20.90
2018-06-03T02:53:42.643Z,20.90
2018-06-03T02:54:45.112Z,20.90
2018-06-03T02:55:47.767Z,20.90
2018-06-03T02:56:50.284Z,20.90
2018-06-03T02:57:53.516Z,20.90
2018-06-03T02:58:55.984Z,20.90
2018-06-03T02:59:58.468Z,20.90
2018-06-03T03:01:01.253Z,20.90
2018-06-03T03:02:04.534Z,20.90
2018-06-03T03:03:07.012Z,20.90
2018-06-03T03:04:10.244Z,20.90
2018-06-03T03:05:12.991Z,20.90
2018-06-03T03:06:15.661Z,20.90
2018-06-03T03:07:18.180Z,20.90
2018-06-03T03:08:20.651Z,20.90
2018-06-03T03:09:23.126Z,20.90
2018-06-03T03:10:26.744Z,20.90
2018-06-03T03:11:29.254Z,20.90
2018-06-03T03:12:31.757Z,20.80
2018-06-03T03:13:34.992Z,20.80
2018-06-03T03:14:37.464Z,20.80
2018-06-03T03:15:40.118Z,20.80
2018-06-03T03:16:42.616Z,20.80
2018-06-03T03:17:45.869Z,20.80
2018-06-03T03:18:48.344Z,20.80
2018-06-03T03:19:50.812Z,20.90
2018-06-03T03:20:53.536Z,20.90
2018-06-03T03:21:56.036Z,20.90
2018-06-03T03:22:58.528Z,20.90
2018-06-03T03:24:02.512Z,20.90
2018-06-03T03:25:05.158Z,20.90
2018-06-03T03:26:07.824Z,20.90
2018-06-03T03:27:10.339Z,20.90
2018-06-03T03:28:13.591Z,20.90
2018-06-03T03:29:16.063Z,20.90
2018-06-03T03:30:18.891Z,20.90
2018-06-03T03:31:21.584Z,21.00
2018-06-03T03:32:24.076Z,21.00
2018-06-03T03:33:26.559Z,21.00
2018-06-03T03:34:29.806Z,21.00
2018-06-03T03:35:32.578Z,21.00
2018-06-03T03:36:35.063Z,21.00
2018-06-03T03:37:38.308Z,21.00
2018-06-03T03:38:40.799Z,21.00
2018-06-03T03:39:43.275Z,21.00
2018-06-03T03:40:46.570Z,21.00
2018-06-03T03:41:49.820Z,21.00
2018-06-03T03:42:52.292Z,21.00
2018-06-03T03:43:54.793Z,21.00
2018-06-03T03:44:58.024Z,21.00
2018-06-03T03:46:01.436Z,21.00
2018-06-03T03:47:04.691Z,20.90
2018-06-03T03:48:07.163Z,20.90
2018-06-03T03:49:09.656Z,21.00
2018-06-03T03:50:13.131Z,20.90
2018-06-03T03:51:16.569Z,21.00
2018-06-03T03:52:19.072Z,20.90
2018-06-03T03:53:21.543Z,21.00
2018-06-03T03:54:24.028Z,21.00
2018-06-03T03:55:29.191Z,21.00
2018-06-03T03:56:31.684Z,21.00
2018-06-03T03:57:34.155Z,21.00
2018-06-03T03:58:36.628Z,21.00
2018-06-03T03:59:39.145Z,21.00
2018-06-03T04:00:41.861Z,21.00
2018-06-03T04:01:44.344Z,21.00
2018-06-03T04:02:48.319Z,21.00
2018-06-03T04:03:50.793Z,21.00
2018-06-03T04:04:53.280Z,21.00
2018-06-03T04:05:56.703Z,21.00
2018-06-03T04:07:36.888Z,21.00
2018-06-03T04:08:40.292Z,21.00
2018-06-03T04:09:43.696Z,21.00
2018-06-03T04:10:48.341Z,21.00
2018-06-03T04:11:51.760Z,21.00
2018-06-03T04:12:55.143Z,21.00
2018-06-03T04:13:58.556Z,21.00
2018-06-03T04:15:02.084Z,21.00
2018-06-03T04:16:06.891Z,21.00
2018-06-03T04:17:10.305Z,21.00
2018-06-03T04:18:13.684Z,21.00
2018-06-03T04:19:17.059Z,21.00
2018-06-03T04:20:21.630Z,21.00
2018-06-03T04:21:25.471Z,21.00
2018-06-03T04:22:28.899Z,21.00
2018-06-03T04:23:32.332Z,21.00
2018-06-03T04:24:35.720Z,21.00
2018-06-03T04:25:40.239Z,21.00
2018-06-03T04:26:43.635Z,21.00
2018-06-03T04:27:47.013Z,20.90
2018-06-03T04:28:50.392Z,20.90
2018-06-03T04:29:53.787Z,20.90
2018-06-03T04:30:58.284Z,20.90
2018-06-03T04:32:01.728Z,20.90
2018-06-03T04:33:05.124Z,20.90
2018-06-03T04:34:08.527Z,20.90
2018-06-03T04:35:15.736Z,20.90
2018-06-03T04:36:20.155Z,20.80
2018-06-03T04:37:23.601Z,20.90
2018-06-03T04:38:26.984Z,20.90
2018-06-03T04:39:30.356Z,20.90
2018-06-03T04:40:34.766Z,20.90
2018-06-03T04:41:38.208Z,20.90
2018-06-03T04:42:41.588Z,20.90
2018-06-03T04:43:45.000Z,21.00
2018-06-03T04:44:48.391Z,21.00
2018-06-03T04:45:52.753Z,21.00
2018-06-03T04:46:56.260Z,21.00
2018-06-03T04:47:59.642Z,21.00
2018-06-03T04:49:03.024Z,21.10
2018-06-03T04:50:07.538Z,21.10
2018-06-03T04:51:11.884Z,21.10
2018-06-03T04:52:15.315Z,21.10
2018-06-03T04:53:18.704Z,21.10
2018-06-03T04:54:22.084Z,21.10
2018-06-03T04:55:27.089Z,21.10
2018-06-03T04:57:33.636Z,21.00
2018-06-03T04:58:37.020Z,21.10
2018-06-03T04:59:40.395Z,21.10
2018-06-03T05:00:45.425Z,21.10
2018-06-03T05:01:48.860Z,21.10
2018-06-03T05:02:52.285Z,21.10
2018-06-03T05:03:55.672Z,21.10
2018-06-03T05:04:59.059Z,21.10
2018-06-03T05:06:04.021Z,21.20
2018-06-03T05:07:07.440Z,21.20
2018-06-03T05:08:10.849Z,21.10
2018-06-03T05:09:14.257Z,21.20
2018-06-03T05:10:18.670Z,21.10
2018-06-03T05:11:22.887Z,21.10
2018-06-03T05:13:29.381Z,21.10
2018-06-03T05:14:32.760Z,21.10
2018-06-03T05:15:37.836Z,21.00
2018-06-03T05:16:41.271Z,21.00
2018-06-03T05:17:44.648Z,21.00
2018-06-03T05:19:51.133Z,21.00
2018-06-03T05:20:55.568Z,21.00
2018-06-03T05:21:59.064Z,21.00
2018-06-03T05:23:02.448Z,21.00
2018-06-03T05:24:05.844Z,21.00
2018-06-03T05:25:10.234Z,21.10
2018-06-03T05:26:14.646Z,21.10
2018-06-03T05:27:18.056Z,21.20
2018-06-03T05:28:21.463Z,21.20
2018-06-03T05:29:24.860Z,21.20
2018-06-03T05:30:29.291Z,21.30
2018-06-03T05:31:32.715Z,21.30
2018-06-03T05:32:36.110Z,21.30
2018-06-03T05:33:39.487Z,21.40
2018-06-03T05:34:42.895Z,21.40
2018-06-03T05:35:47.325Z,21.40
2018-06-03T05:36:50.747Z,21.40
2018-06-03T05:37:54.143Z,21.40
2018-06-03T05:38:57.652Z,21.50
2018-06-03T05:40:01.047Z,21.50
2018-06-03T05:41:05.471Z,21.50
2018-06-03T05:43:11.971Z,21.60
2018-06-03T05:44:15.408Z,21.60
2018-06-03T05:45:19.965Z,21.60
2018-06-03T05:46:23.804Z,21.60
2018-06-03T05:47:27.238Z,21.60
2018-06-03T05:48:30.643Z,21.60
2018-06-03T05:49:34.028Z,21.70
2018-06-03T05:50:38.553Z,21.70
2018-06-03T05:51:41.956Z,21.70
2018-06-03T05:52:45.347Z,21.70
2018-06-03T05:53:48.736Z,21.70
2018-06-03T05:54:52.223Z,21.70
2018-06-03T05:55:56.821Z,21.80
2018-06-03T05:57:00.219Z,21.80
2018-06-03T05:58:03.607Z,21.80
2018-06-03T05:59:06.983Z,21.80
2018-06-03T06:00:11.342Z,21.80
2018-06-03T06:01:15.892Z,21.90
2018-06-03T06:02:19.291Z,21.90
2018-06-03T06:03:22.663Z,21.90
2018-06-03T06:04:26.036Z,21.90
2018-06-03T06:05:30.461Z,22.00
2018-06-03T06:06:34.004Z,22.00
2018-06-03T06:07:37.391Z,22.00
2018-06-03T06:08:40.779Z,22.00
2018-06-03T06:09:44.155Z,22.00
2018-06-03T06:10:48.708Z,22.00
2018-06-03T06:11:52.147Z,22.10
2018-06-03T06:12:55.527Z,22.10
2018-06-03T06:13:58.908Z,22.10
2018-06-03T06:15:02.304Z,22.10
2018-06-03T06:17:10.411Z,22.10
2018-06-03T06:18:13.795Z,22.20
2018-06-03T06:19:17.327Z,22.20
2018-06-03T06:20:21.721Z,22.20
2018-06-03T06:21:26.117Z,22.20
2018-06-03T06:23:32.647Z,22.30
2018-06-03T06:24:36.044Z,22.30
2018-06-03T06:25:40.488Z,22.30
2018-06-03T06:26:43.907Z,22.30
2018-06-03T06:27:47.317Z,22.30
2018-06-03T06:28:50.708Z,22.30
2018-06-03T06:29:54.088Z,22.30
2018-06-03T06:30:59.131Z,22.40
2018-06-03T06:32:02.529Z,22.40
2018-06-03T06:33:05.939Z,22.40
2018-06-03T06:36:18.363Z,22.40
2018-06-03T06:37:21.784Z,22.40
2018-06-03T06:38:25.188Z,22.40
2018-06-03T06:39:28.564Z,22.40
2018-06-03T06:40:33.065Z,22.30
2018-06-03T06:41:36.496Z,22.30
2018-06-03T06:42:39.856Z,22.30
2018-06-03T06:43:43.260Z,22.30
2018-06-03T06:44:46.697Z,22.30
2018-06-03T06:45:52.057Z,22.30
2018-06-03T06:47:58.544Z,22.20
2018-06-03T06:49:01.962Z,22.30
2018-06-03T06:50:06.829Z,22.30
2018-06-03T06:51:12.041Z,22.30
2018-06-03T06:52:15.444Z,22.40
2018-06-03T06:53:18.919Z,22.40
2018-06-03T06:54:22.332Z,22.40
2018-06-03T06:55:26.708Z,22.40
2018-06-03T06:56:30.524Z,22.40
2018-06-03T06:57:33.904Z,22.40
2018-06-03T06:58:37.283Z,22.40
2018-06-03T06:59:40.687Z,22.50
2018-06-03T07:00:45.189Z,22.50
2018-06-03T07:02:51.668Z,22.40
2018-06-03T07:03:55.044Z,22.40
2018-06-03T07:04:58.444Z,22.40
2018-06-03T07:06:02.782Z,22.40
2018-06-03T07:07:06.207Z,22.40
2018-06-03T07:08:09.580Z,22.40
2018-06-03T07:09:13.317Z,22.40
2018-06-03T07:10:17.781Z,22.40
2018-06-03T07:11:22.231Z,22.40
2018-06-03T07:12:25.616Z,22.30
2018-06-03T07:13:29.005Z,22.40
2018-06-03T07:14:32.398Z,22.30
2018-06-03T07:15:36.873Z,22.30
2018-06-03T07:16:40.268Z,22.30
2018-06-03T07:17:43.651Z,22.20
2018-06-03T07:18:47.036Z,22.20
2018-06-03T07:19:50.424Z,22.10
2018-06-03T07:20:54.784Z,22.10
2018-06-03T07:21:58.192Z,22.10
2018-06-03T07:23:01.576Z,22.10
2018-06-03T07:24:04.956Z,22.10
2018-06-03T07:25:09.349Z,22.00
2018-06-03T07:27:17.281Z,22.00
2018-06-03T07:28:20.669Z,22.00
2018-06-03T07:29:24.091Z,22.00
2018-06-03T07:30:28.519Z,22.00
2018-06-03T07:31:31.952Z,22.00
2018-06-03T07:32:35.356Z,22.00
2018-06-03T07:33:38.748Z,22.00
2018-06-03T07:34:48.564Z,22.00
2018-06-03T07:35:53.024Z,21.90
2018-06-03T07:36:56.443Z,22.00
2018-06-03T07:39:03.004Z,22.00
2018-06-03T07:42:14.440Z,22.00
2018-06-03T07:43:17.843Z,22.00
2018-06-03T07:44:21.260Z,22.00
2018-06-03T07:45:25.547Z,22.10
2018-06-03T07:48:42.276Z,22.10
2018-06-03T07:50:49.851Z,22.10
2018-06-03T07:51:53.286Z,22.10
2018-06-03T07:52:56.695Z,22.10
2018-06-03T07:54:00.084Z,22.20
2018-06-03T07:55:10.815Z,22.20
2018-06-03T07:56:15.178Z,22.20
2018-06-03T07:58:21.704Z,22.20
2018-06-03T07:59:25.084Z,22.30
2018-06-03T08:00:29.463Z,22.30
2018-06-03T08:01:32.916Z,22.40
2018-06-03T08:02:36.308Z,22.40
2018-06-03T08:03:39.726Z,22.50
2018-06-03T08:04:43.128Z,22.50
2018-06-03T08:05:47.605Z,22.60
2018-06-03T08:06:51.024Z,22.60
2018-06-03T08:07:54.405Z,22.60
2018-06-03T08:08:57.824Z,22.60
2018-06-03T08:10:01.238Z,22.60
2018-06-03T08:11:05.743Z,22.60
2018-06-03T08:12:09.241Z,22.60
2018-06-03T08:13:12.620Z,22.50
2018-06-03T08:14:16.044Z,22.50
2018-06-03T08:15:20.589Z,22.50
2018-06-03T08:16:25.184Z,22.50
2018-06-03T08:17:28.612Z,22.50
2018-06-03T08:18:31.992Z,22.40
2018-06-03T08:19:35.412Z,22.40
2018-06-03T08:21:43.708Z,22.40
2018-06-03T08:22:47.143Z,22.40
2018-06-03T08:23:50.547Z,22.40
2018-06-03T08:24:53.980Z,22.40
2018-06-03T08:27:02.427Z,22.50
2018-06-03T08:28:05.879Z,22.50
2018-06-03T08:30:14.416Z,22.70
2018-06-03T08:31:18.984Z,22.70
2018-06-03T08:32:22.403Z,22.70
2018-06-03T08:33:25.792Z,22.80
2018-06-03T08:34:29.185Z,22.80
2018-06-03T08:35:33.614Z,22.90
2018-06-03T08:36:37.031Z,22.90
2018-06-03T08:37:40.420Z,23.00
2018-06-03T08:38:43.805Z,23.00
2018-06-03T08:39:47.180Z,23.00
2018-06-03T08:40:51.553Z,23.10
2018-06-03T08:41:54.976Z,23.10
2018-06-03T08:42:58.371Z,23.20
2018-06-03T08:44:01.767Z,23.30
2018-06-03T08:45:06.055Z,23.30
2018-06-03T08:51:28.142Z,23.50
2018-06-03T08:52:31.608Z,23.50
2018-06-03T08:53:35.016Z,23.50
2018-06-03T08:54:38.392Z,23.50
2018-06-03T08:55:43.396Z,23.50
2018-06-03T08:57:49.912Z,23.50
2018-06-03T08:58:53.296Z,23.50
2018-06-03T08:59:56.676Z,23.50
2018-06-03T09:02:03.773Z,23.50
2018-06-03T09:03:07.159Z,23.50
2018-06-03T09:04:10.540Z,23.50
2018-06-03T09:05:15.014Z,23.40
2018-06-03T09:06:19.321Z,23.40
2018-06-03T09:08:25.851Z,23.30
2018-06-03T09:09:29.244Z,23.30
2018-06-03T09:10:33.733Z,23.30
2018-06-03T09:11:37.132Z,23.20
2018-06-03T09:12:40.544Z,23.20
2018-06-03T09:13:43.951Z,23.20
2018-06-03T09:15:51.337Z,23.10
2018-06-03T09:17:57.844Z,23.10
2018-06-03T09:19:01.234Z,23.10
2018-06-03T09:20:05.939Z,23.10
2018-06-03T09:21:11.243Z,23.10
2018-06-03T09:22:14.695Z,23.10
2018-06-03T09:23:18.100Z,23.10
2018-06-03T09:24:21.484Z,23.10
2018-06-03T09:25:25.399Z,23.10
2018-06-03T09:28:35.458Z,23.10
2018-06-03T09:29:38.827Z,23.10
2018-06-03T09:30:43.256Z,23.10
2018-06-03T09:31:46.663Z,23.10
2018-06-03T09:32:50.036Z,23.10
2018-06-03T09:33:53.447Z,23.10
2018-06-03T09:34:56.832Z,23.10
2018-06-03T09:36:01.240Z,23.10
2018-06-03T09:37:04.664Z,23.10
2018-06-03T09:38:08.048Z,23.10
2018-06-03T09:39:11.444Z,23.10
2018-06-03T09:40:15.942Z,23.10
2018-06-03T09:41:20.275Z,23.10
2018-06-03T09:42:23.672Z,23.10
2018-06-03T09:45:35.660Z,23.10
2018-06-03T09:46:39.174Z,23.10
2018-06-03T09:47:42.609Z,23.10
2018-06-03T09:48:45.963Z,23.10
2018-06-03T09:49:49.388Z,23.10
2018-06-03T09:50:53.714Z,23.10
2018-06-03T09:51:57.116Z,23.20
2018-06-03T09:54:03.679Z,23.20
2018-06-03T09:55:08.191Z,23.20
2018-06-03T09:56:12.659Z,23.30
2018-06-03T09:57:16.073Z,23.30
2018-06-03T09:58:19.455Z,23.30
2018-06-03T09:59:22.835Z,23.30
2018-06-03T10:00:28.960Z,23.30
2018-06-03T10:01:32.364Z,23.30
2018-06-03T10:02:36.153Z,23.40
2018-06-03T10:03:41.266Z,23.40
2018-06-03T10:06:52.036Z,23.50
2018-06-03T10:07:55.492Z,23.50
2018-06-03T10:08:58.895Z,23.60
2018-06-03T10:10:02.276Z,23.60
2018-06-03T10:11:06.894Z,23.60
2018-06-03T10:12:10.312Z,23.60
2018-06-03T10:13:13.696Z,23.70
2018-06-03T10:14:17.107Z,23.70
2018-06-03T10:15:21.958Z,23.70
2018-06-03T10:16:26.721Z,23.70
2018-06-03T10:17:30.123Z,23.70
2018-06-03T10:18:33.514Z,23.70
2018-06-03T10:19:36.908Z,23.70
2018-06-03T10:21:44.064Z,23.70
2018-06-03T10:22:47.449Z,23.70
2018-06-03T10:23:50.831Z,23.70
2018-06-03T10:24:54.220Z,23.70
2018-06-03T10:25:58.649Z,23.70
2018-06-03T10:27:02.137Z,23.70
2018-06-03T10:28:05.827Z,23.70
2018-06-03T10:29:09.207Z,23.70
2018-06-03T10:30:14.485Z,23.70
2018-06-03T10:31:26.169Z,23.70
2018-06-03T10:32:29.628Z,23.80
2018-06-03T10:33:33.018Z,23.80
2018-06-03T10:34:36.408Z,23.80
2018-06-03T10:37:46.791Z,23.90
2018-06-03T10:38:50.179Z,23.90
2018-06-03T10:39:53.569Z,23.90
2018-06-03T10:40:58.085Z,24.00
2018-06-03T10:42:01.507Z,24.00
2018-06-03T10:43:04.912Z,24.00
2018-06-03T10:44:08.292Z,24.00
2018-06-03T10:45:12.467Z,24.00
2018-06-03T10:47:19.596Z,24.00
2018-06-03T10:48:23.003Z,24.00
2018-06-03T10:49:26.386Z,24.00
2018-06-03T10:50:31.046Z,24.00
2018-06-03T10:51:34.443Z,24.00
2018-06-03T10:52:37.826Z,23.90
2018-06-03T10:53:41.232Z,23.90
2018-06-03T10:56:51.611Z,23.90
2018-06-03T10:57:54.996Z,23.90
2018-06-03T10:58:58.400Z,23.80
2018-06-03T11:00:01.785Z,23.80
2018-06-03T11:01:06.264Z,23.80
2018-06-03T11:02:09.678Z,23.80
2018-06-03T11:03:13.066Z,23.80
2018-06-03T11:04:16.472Z,23.80
2018-06-03T11:05:20.915Z,23.80
2018-06-03T11:06:24.880Z,23.80
2018-06-03T11:07:28.304Z,23.90
2018-06-03T11:08:31.682Z,23.90
2018-06-03T11:09:35.088Z,23.90
2018-06-03T11:10:39.761Z,23.90
2018-06-03T11:11:43.196Z,23.90
2018-06-03T11:13:49.663Z,23.90
2018-06-03T11:15:57.768Z,24.00
2018-06-03T11:17:01.180Z,24.00
2018-06-03T11:18:04.565Z,24.00
2018-06-03T11:19:07.951Z,24.10
2018-06-03T11:20:12.478Z,24.10
2018-06-03T11:21:16.919Z,24.20
2018-06-03T11:23:23.420Z,24.20
2018-06-03T11:24:26.796Z,24.20
2018-06-03T11:26:34.631Z,24.20
2018-06-03T11:27:38.004Z,24.20
2018-06-03T11:28:41.384Z,24.20
2018-06-03T11:29:44.775Z,24.30
2018-06-03T11:30:50.095Z,24.30
2018-06-03T11:31:53.513Z,24.30
2018-06-03T11:32:56.916Z,24.40
2018-06-03T11:34:00.340Z,24.40
2018-06-03T11:35:03.972Z,24.40
2018-06-03T11:36:08.505Z,24.50
2018-06-03T11:37:11.907Z,24.50
2018-06-03T11:38:15.292Z,24.50
2018-06-03T11:39:18.671Z,24.60
2018-06-03T11:40:23.184Z,24.60
2018-06-03T11:41:28.708Z,24.60
2018-06-03T11:42:32.092Z,24.60
2018-06-03T11:43:35.477Z,24.60
2018-06-03T11:44:38.872Z,24.60
2018-06-03T11:45:43.287Z,24.60
2018-06-03T11:46:46.742Z,24.70
2018-06-03T11:47:50.120Z,24.70
2018-06-03T11:48:53.501Z,24.70
2018-06-03T11:49:56.892Z,24.80
2018-06-03T11:51:01.348Z,24.80
2018-06-03T11:52:04.776Z,24.80
2018-06-03T11:53:08.172Z,24.90
2018-06-03T11:54:11.916Z,24.90
2018-06-03T11:55:16.736Z,24.90
2018-06-03T11:57:34.956Z,24.90
2018-06-03T11:58:53.480Z,25.00
2018-06-03T11:59:57.200Z,25.00
2018-06-03T12:01:01.640Z,25.10
2018-06-03T12:04:11.740Z,25.30
2018-06-03T12:05:17.216Z,25.30
2018-06-03T12:06:21.680Z,25.40
2018-06-03T12:07:25.104Z,25.40
2018-06-03T12:08:28.503Z,25.40
2018-06-03T12:09:31.887Z,25.50
2018-06-03T12:10:36.387Z,25.50
2018-06-03T12:11:39.808Z,25.50
2018-06-03T12:12:43.193Z,25.50
2018-06-03T12:13:46.612Z,25.50
2018-06-03T12:14:49.991Z,25.50
2018-06-03T12:15:54.537Z,25.60
2018-06-03T12:16:57.923Z,25.60
2018-06-03T12:18:01.304Z,25.60
2018-06-03T12:19:04.716Z,25.70
2018-06-03T12:20:08.867Z,25.70
2018-06-03T12:21:13.419Z,25.70
2018-06-03T12:25:27.185Z,25.90
2018-06-03T12:26:30.584Z,25.90
2018-06-03T12:27:34.008Z,25.80
2018-06-03T12:28:37.422Z,25.80
2018-06-03T12:29:40.827Z,25.80
2018-06-03T12:30:45.946Z,25.70
2018-06-03T12:32:52.428Z,25.70
2018-06-03T12:33:55.817Z,25.60
2018-06-03T12:36:03.375Z,25.60
2018-06-03T12:37:06.812Z,25.60
2018-06-03T12:38:10.204Z,25.70
2018-06-03T12:39:13.588Z,25.70
2018-06-03T12:40:19.270Z,25.70
2018-06-03T12:41:23.493Z,25.70
2018-06-03T12:42:26.916Z,25.70
2018-06-03T12:43:30.300Z,25.80
2018-06-03T12:44:33.701Z,25.80
2018-06-03T12:45:38.224Z,25.80
2018-06-03T12:46:41.630Z,25.80
2018-06-03T12:47:45.008Z,25.80
2018-06-03T12:48:48.396Z,25.70
2018-06-03T12:49:51.775Z,25.70
2018-06-03T12:50:56.270Z,25.60
2018-06-03T12:51:59.691Z,25.60
2018-06-03T12:53:09.555Z,25.60
2018-06-03T12:55:18.525Z,25.60
2018-06-03T12:56:23.044Z,25.60
2018-06-03T12:57:26.432Z,25.60
2018-06-03T12:58:29.848Z,25.50
2018-06-03T12:59:33.232Z,25.50
2018-06-03T13:00:38.521Z,25.50
2018-06-03T13:01:41.976Z,25.50
2018-06-03T13:02:45.360Z,25.60
2018-06-03T13:03:48.753Z,25.60
2018-06-03T13:04:52.133Z,25.60
2018-06-03T13:05:56.534Z,25.60
2018-06-03T13:06:59.979Z,25.70
2018-06-03T13:08:03.364Z,25.70
2018-06-03T13:09:07.242Z,25.80
2018-06-03T13:10:11.750Z,25.80
2018-06-03T13:11:16.380Z,25.80
2018-06-03T13:12:19.826Z,25.90
2018-06-03T13:13:23.214Z,25.90
2018-06-03T13:14:26.625Z,25.90
2018-06-03T13:15:31.057Z,25.90
2018-06-03T13:16:34.467Z,26.00
2018-06-03T13:17:37.872Z,26.00
2018-06-03T13:21:51.327Z,26.10
2018-06-03T13:22:54.739Z,26.10
2018-06-03T13:23:58.128Z,26.00
2018-06-03T13:25:01.517Z,26.00
2018-06-03T13:26:05.377Z,26.00
2018-06-03T13:27:08.768Z,26.00
2018-06-03T13:28:12.180Z,26.00
2018-06-03T13:29:15.568Z,26.00
2018-06-03T13:30:20.079Z,26.00
2018-06-03T13:31:24.531Z,26.10
2018-06-03T13:34:34.172Z,26.20
2018-06-03T13:35:38.497Z,26.20
2018-06-03T13:39:51.251Z,26.20
2018-06-03T13:40:55.703Z,26.20
2018-06-03T13:43:02.200Z,26.30
2018-06-03T13:44:05.637Z,26.40
2018-06-03T13:45:10.002Z,26.40
2018-06-03T13:47:17.333Z,26.60
2018-06-03T13:48:20.727Z,26.60
2018-06-03T13:49:24.136Z,26.60
2018-06-03T13:50:29.428Z,26.60
2018-06-03T13:51:32.877Z,26.70
2018-06-03T13:53:39.344Z,26.70
2018-06-03T13:54:42.763Z,26.70
2018-06-03T13:55:47.314Z,26.60
2018-06-03T13:56:50.723Z,26.50
2018-06-03T13:57:54.108Z,26.50
2018-06-03T13:58:57.495Z,26.40
2018-06-03T14:00:00.900Z,26.30
2018-06-03T14:01:06.193Z,26.30
2018-06-03T14:02:09.608Z,26.20
2018-06-03T14:05:20.404Z,26.10
2018-06-03T14:06:25.146Z,26.10
2018-06-03T14:07:28.563Z,26.10
2018-06-03T14:08:31.955Z,26.20
2018-06-03T14:09:35.347Z,26.20
2018-06-03T14:10:39.744Z,26.10
2018-06-03T14:11:43.148Z,26.10
2018-06-03T14:12:46.535Z,26.10
2018-06-03T14:13:49.927Z,26.10
2018-06-03T14:14:53.309Z,26.10
2018-06-03T14:15:57.849Z,26.00
2018-06-03T14:17:01.276Z,26.00
2018-06-03T14:18:04.919Z,26.00
2018-06-03T14:19:08.299Z,26.00
2018-06-03T14:20:12.741Z,26.00
2018-06-03T14:21:17.222Z,26.10
2018-06-03T14:22:20.643Z,26.10
2018-06-03T14:23:24.024Z,26.20
2018-06-03T14:24:27.410Z,26.20
2018-06-03T14:25:31.743Z,26.10
2018-06-03T14:26:35.164Z,26.10
2018-06-03T14:27:38.547Z,26.10
2018-06-03T14:28:41.944Z,26.10
2018-06-03T14:29:45.332Z,26.00
2018-06-03T14:30:50.524Z,26.00
2018-06-03T14:32:57.055Z,26.00
2018-06-03T14:34:00.441Z,26.00
2018-06-03T14:35:04.025Z,25.90
2018-06-03T14:36:08.966Z,25.90
2018-06-03T14:38:15.496Z,25.90
2018-06-03T14:39:18.884Z,25.90
2018-06-03T14:40:24.340Z,26.00
2018-06-03T14:41:28.680Z,26.10
2018-06-03T14:42:32.088Z,26.20
2018-06-03T14:45:43.061Z,26.50
2018-06-03T14:46:46.488Z,26.50
2018-06-03T14:47:49.891Z,26.50
2018-06-03T14:48:53.283Z,26.50
2018-06-03T14:49:56.680Z,26.60
2018-06-03T14:51:01.946Z,26.70
2018-06-03T14:52:05.364Z,26.80
2018-06-03T14:53:08.792Z,26.90
2018-06-03T14:54:12.292Z,27.00
2018-06-03T14:56:20.715Z,27.00
2018-06-03T14:57:24.115Z,27.00
2018-06-03T14:58:28.360Z,27.00